Snake Valley, Nevada Weather observations

Data are for 10 minute period ending at time listed.
 Day   Time   Solar   Ave.   Ave.  Ave.  Vector  Max.   Baro.   Total    
  of    of     Rad.   Air    Rel.  Wind   Wind   Wind  Press.  Precip.   
Year   Day            Temp.  Hum.  Speed  Dir.   Gust                    
2016   (PST)  Kw/m2    F      %     mph   deg.    mph    mb.     in.     
-------------------------------------------------------------------------
 341    4:50   0.00    3.6    76    1.2   286     3.3   836.1    0.00 
 341    5:00   0.00    3.7    75    1.3   255     3.1   836.0    0.00 
 341    5:10   0.00    4.0    75    1.3   314     4.2   835.9    0.00 
 341    5:20   0.00    4.5    76    0.8   344     3.0   835.8    0.00 
 341    5:30   0.00    2.7    75    1.8   180     8.6   835.9    0.00 
 341    5:40   0.00    1.8    77    0.9   227     2.8   835.9    0.00 
 341    5:50   0.00    1.8    80    2.7   293     4.6   835.9    0.00 
 341    6:00   0.00    2.1    81    2.4   289     4.4   836.0    0.00 
 341    6:10   0.00    2.1    80    1.6   292     5.0   835.9    0.00 
 341    6:20   0.00    2.0    80    1.6   290     4.3   835.9    0.00 
 341    6:30   0.00    1.6    80    1.0   284     4.2   835.9    0.00 
 341    6:40   0.00    1.6    80    2.4   269     4.6   835.7    0.00 
 341    6:50   0.01    2.0    80    2.1   262     3.7   835.7    0.00 
 341    7:00   0.01    2.6    79    2.0   318     3.6   835.5    0.00 
 341    7:10   0.04    3.6    78    1.0   339     3.4   835.3    0.00 
 341    7:20   0.06    5.9    75    0.4   332     1.1   835.3    0.00 
 341    7:30   0.08    7.6    73    2.4   293     4.2   835.3    0.00 
 341    7:40   0.10    9.2    72    2.8   296     4.9   835.3    0.00 
 341    7:50   0.12   11.9    70    1.4   313     3.9   835.3    0.00 
 341    8:00   0.14   15.0    62    1.9   104     6.1   835.2    0.00 
 341    8:10   0.17   16.2    58    7.3   152    12.0   835.0    0.00 
 341    8:20   0.19   16.3    57    7.9   161     9.6   834.9    0.00 
 341    8:30   0.22   17.2    55    9.0   168    12.6   834.6    0.00 
 341    8:40   0.24   18.4    53    8.7   170    12.3   834.5    0.00 
 341    8:50   0.27   19.8    49    8.6   164    12.6   834.4    0.00 
 341    9:00   0.29   20.7    48    8.1   144    11.4   834.3    0.00 
 341    9:10   0.31   22.3    46    5.8   157     8.3   834.3    0.00 
 341    9:20   0.34   23.5    42    9.2   141    12.6   834.2    0.00 
 341    9:30   0.36   23.9    42   10.2   138    14.3   834.1    0.00 
 341    9:40   0.38   25.1    40    9.5   152    13.1   834.0    0.00 
 341    9:50   0.40   26.1    38    9.1   154    12.8   833.8    0.00 
 341   10:00   0.41   26.8    36    8.7   168    13.2   833.4    0.00 
 341   10:10   0.43   28.2    33    7.1   164    11.3   833.0    0.00 
 341   10:20   0.44   28.8    32    6.4   162    10.7   832.9    0.00 
 341   10:30   0.46   28.5    33    6.5   123    10.2   832.6    0.00 
 341   10:40   0.47   28.6    32    5.5   110     9.3   832.3    0.00 
 341   10:50   0.47   29.3    31    3.4    76     7.7   832.1    0.00 
 341   11:00   0.48   29.9    30    3.4    55     5.8   832.0    0.00 
 341   11:10   0.49   31.1    29    2.1    68     5.7   831.8    0.00 
 341   11:20   0.49   32.7    27    2.7    62     8.0   831.6    0.00 
 341   11:30   0.49   32.6    27    3.2   110     8.5   831.4    0.00 
 341   11:40   0.49   33.0    27    3.5    88     6.7   831.1    0.00 
 341   11:50   0.49   34.6    26    2.6    59     6.9   830.9    0.00 
 341   12:00   0.49   35.6    25    3.7    66     8.8   830.7    0.00 
 341   12:10   0.49   36.5    25    3.9   134     7.7   830.5    0.00 
 341   12:20   0.48   37.2    25    4.0    96     7.3   830.3    0.00 
 341   12:30   0.47   37.8    24    5.0    73     8.3   830.4    0.00 
 341   12:40   0.46   38.1    24    6.3    57    10.1   830.4    0.00 
 341   12:50   0.45   38.0    23    6.1    69     9.5   830.4    0.00 
 341   13:00   0.44   37.8    23    7.6    50    10.4   830.3    0.00 
 341   13:10   0.43   37.8    23    6.2    70     9.9   830.3    0.00 
 341   13:20   0.41   38.0    22    7.8    50    10.9   830.3    0.00 
 341   13:30   0.39   38.3    22    7.9    64    11.0   830.3    0.00 
 341   13:40   0.38   38.7    21    9.3    58    12.7   830.2    0.00 
 341   13:50   0.36   38.4    22   12.6    41    16.1   830.3    0.00 
 341   14:00   0.34   37.4    23   13.5    42    20.5   830.3    0.00 
 341   14:10   0.30   36.8    24   15.1    38    21.5   830.3    0.00 
 341   14:20   0.29   36.7    24   12.8    37    19.1   830.5    0.00 
 341   14:30   0.28   36.8    23   16.0    31    22.4   830.4    0.00 
 341   14:40   0.26   36.7    23   18.5    32    25.9   830.5    0.00 
 341   14:50   0.20   35.8    23   18.5    34    25.4   830.7    0.00 
 341   15:00   0.16   34.6    23   20.0    24    28.6   831.0    0.00 
 341   15:10   0.17   34.2    23   20.3    22    29.5   831.3    0.00 
 341   15:20   0.14   33.7    23   19.6    21    27.8   831.7    0.00 
 341   15:30   0.12   33.2    23   15.4    15    22.1   831.9    0.00 
 341   15:40   0.03   32.1    24   12.9    22    19.1   832.1    0.00 
 341   15:50   0.02   31.0    26   12.0    20    23.9   832.4    0.00 
 341   16:00   0.01   30.5    26    5.9   334    13.3   832.7    0.00 
 341   16:10   0.01   30.5    26    4.5   324     8.9   833.0    0.00 
 341   16:20   0.01   30.1    27    4.8   299     9.5   833.1    0.00 
 341   16:30   0.00   29.6    28    2.9   314     9.0   833.3    0.00 
 341   16:40   0.00   29.4    28    4.3   287     7.2   833.4    0.00 
 341   16:50   0.00   27.6    30    4.0   290     5.2   833.6    0.00 
 341   17:00   0.00   24.6    33    3.0   301     4.9   833.9    0.00 
 341   17:10   0.00   22.1    38    2.8   276     4.2   834.1    0.00 
 341   17:20   0.00   19.8    42    2.9   292     5.4   834.4    0.00 
 341   17:30   0.00   19.5    44    4.1   293     6.1   834.7    0.00 
 341   17:40   0.00   20.6    44    3.8   288     5.5   834.9    0.00 
 341   17:50   0.00   19.7    46    5.1   282     6.4   835.2    0.00 
 341   18:00   0.00   19.6    48    5.7   291     7.1   835.3    0.00 
 341   18:10   0.00   19.8    48    6.5   296     8.6   835.4    0.00 
 341   18:20   0.00   18.0    50    4.7   292     5.6   835.5    0.00 
 341   18:30   0.00   17.0    53    5.0   300     7.7   835.8    0.00 
 341   18:40   0.00   20.1    48    5.2   332     7.2   836.0    0.00 
 341   18:50   0.00   23.4    42    4.9   344    10.4   836.1    0.00 
 341   19:00   0.00   21.3    44    3.4   292     6.0   836.3    0.00 
 341   19:10   0.00   21.4    46    4.7   347     7.2   836.4    0.00 
 341   19:20   0.00   21.5    45    3.6    89     6.9   836.6    0.00 
 341   19:30   0.00   18.5    50    3.9   201     5.6   836.8    0.00 
 341   19:40   0.00   17.2    54    5.4   238     7.0   837.0    0.00 
 341   19:50   0.00   19.2    50    4.2   233     5.8   837.1    0.00 
 341   20:00   0.00   17.7    53    4.7   250     5.7   837.3    0.00 
 341   20:10   0.00   17.1    53    3.9   240     5.6   837.5    0.00 
 341   20:20   0.00   14.5    59    3.5   229     5.6   837.5    0.00 
 341   20:30   0.00   13.9    61    4.6   248     5.8   837.7    0.00 
 341   20:40   0.00   13.7    62    4.4   244     5.6   837.8    0.00 
 341   20:50   0.00   13.7    64    5.0   241     6.4   837.9    0.00 
 341   21:00   0.00   13.6    64    3.7   276     5.3   838.0    0.00 
 341   21:10   0.00   12.5    65    4.5   312     5.3   838.1    0.00 
 341   21:20   0.00   12.3    63    4.0   316     4.9   838.2    0.00 
 341   21:30   0.00   11.2    66    4.6   298     6.2   838.2    0.00 
 341   21:40   0.00    9.9    67    4.6   305     7.4   838.4    0.00 
 341   21:50   0.00    9.7    68    4.8   292     6.9   838.5    0.00 
 341   22:00   0.00    9.3    68    4.3   301     5.6   838.5    0.00 
 341   22:10   0.00   10.7    67    6.0   296     8.0   838.7    0.00 
 341   22:20   0.00   11.8    66    5.7   295     7.2   838.8    0.00 
 341   22:30   0.00   10.8    67    4.7   276     7.5   838.9    0.00 
 341   22:40   0.00   11.9    70    5.1   276     6.8   839.0    0.00 
 341   22:50   0.00   11.6    70    5.2   292     6.6   839.1    0.00 
 341   23:00   0.00   11.6    70    4.6   284     6.6   839.3    0.00 
 341   23:10   0.00   11.0    72    3.6   285     4.5   839.4    0.00 
 341   23:20   0.00   10.8    71    3.6   351     9.1   839.6    0.00 
 341   23:30   0.00   11.2    68    4.1   144     5.9   839.7    0.00 
 341   23:40   0.00    9.8    70    2.9   196     4.8   839.7    0.00 
 341   23:50   0.00    8.2    73    4.1   249     6.1   839.8    0.00 
 342    0:00   0.00    9.5    75    5.2   248     6.8   839.9    0.00 
 342    0:10   0.00    9.3    74    4.7   225     5.6   839.9    0.00 
 342    0:20   0.00    9.2    74    4.7   234     6.2   840.0    0.00 
 342    0:30   0.00   10.7    73    4.0   282     4.8   840.1    0.00 
 342    0:40   0.00   12.1    68    4.4   302     6.7   840.2    0.00 
 342    0:50   0.00   13.1    63    3.8   325     6.9   840.4    0.00 
 342    1:00   0.00    9.7    67    2.6   257     4.5   840.6    0.00 
 342    1:10   0.00    8.8    71    3.1   268     4.5   840.8    0.00 
 342    1:20   0.00    8.4    74    4.6   304     5.7   841.0    0.00 
 342    1:30   0.00    9.3    74    4.6   315     6.1   841.1    0.00 
 342    1:40   0.00    9.5    72    4.2   300     5.3   841.4    0.00 
 342    1:50   0.00    7.9    74    3.9   293     5.2   841.6    0.00 
 342    2:00   0.00    6.9    75    4.3   284     5.5   841.7    0.00 
 342    2:10   0.00    6.6    76    4.3   280     6.3   841.8    0.00 
 342    2:20   0.00    6.6    76    1.9   282     4.7   841.8    0.00 
 342    2:30   0.00    6.4    76    2.1   267     3.4   842.0    0.00 
 342    2:40   0.00    5.8    76    3.3   280     4.1   842.1    0.00 
 342    2:50   0.00    5.5    78    2.9   299     4.1   842.1    0.00 
 342    3:00   0.00    6.0    77    1.5   299     3.3   842.1    0.00 
 342    3:10   0.00    5.2    77    1.0   286     2.3   842.2    0.00 
 342    3:20   0.00    4.8    78    0.5   357     2.6   842.3    0.00 
 342    3:30   0.00    4.5    78    0.3    38     1.2   842.4    0.00 
 342    3:40   0.00    4.8    77    1.4   331     3.5   842.5    0.00 
 342    3:50   0.00    3.9    79    4.0   275     5.4   842.6    0.00 
 342    4:00   0.00    3.6    81    3.8   282     5.0   842.8    0.00 
 342    4:10   0.00    3.1    80    3.7   288     4.7   842.8    0.00 
 342    4:20   0.00    3.8    80    3.4   290     4.5   842.8    0.00 
 342    4:30   0.00    3.7    81    3.3   279     5.5   842.8    0.00 
 342    4:40   0.00    3.9    79    3.6   297     6.4   842.9    0.00 

Return to Snake Valley graphs page.


Western Regional Climate Center,wrcc@dri.edu